Waynesburg, Indiana
Current Conditions -  °F | °C
As of 8:56 PM on Wednesday 26 Nov 2014 (Local Time) from KBAK Reporting Station
Broken Clouds Broken Clouds  
Wind Chill: 25°   Ceiling: 11000
Heat Index: 30°   Visibility: 10mi
Dew Point: 28°   Wind: 5mph
Humidity: 93%   Direction: 30°NNE
Pressure: 30.07"   Gusts: NA
Location:  39.2586°N, 85.6981°W
Report Text: KBAK 270156Z 03004KT 10SM BKN110 M01/M02 A3007
Loading
Personal Weather Stations






























Interactive Weather Map New forecast layout! Learn more

10-Day Weather Forecast

Advertisements
Track Severe Weather on mobile